Погода Сенадор-Жозе-Порфириуна неделю

Пара, Бразилия

17 - 23 июля
  • 17июля
    Сегодня
    +22°
    +35°
    Небольшая облачность
    ВремяПогодаТемператураВлажностьДавлениеВетер, м/сВероятность осадков
    00:00Ясно и безоблачно+25°C74 %761 мм1.7 м/с5 %
    03:00Небольшая облачность+24°C77 %761 мм1.8 м/с5 %
    06:00Ясно и безоблачно+24°C73 %761 мм2.1 м/с5 %
    09:00Ясно и безоблачно+27°C65 %762 мм1.4 м/с5 %
    12:00Ясно и безоблачно+32°C44 %762 мм1.9 м/с5 %
    15:00Небольшая облачность+34°C36 %759 мм2.9 м/с5 %
    18:00Ясно и безоблачно+32°C52 %759 мм1.8 м/с5 %
    21:00Ясно и безоблачно+31°C60 %761 мм2.6 м/с5 %
  • 18июля
    Четверг
    +24°
    +34°
    Небольшая облачность
    ВремяПогодаТемператураВлажностьДавлениеВетер, м/сВероятность осадков
    00:00Ясно и безоблачно+25°C63 %761 мм2.1 м/с5 %
    03:00Ясно и безоблачно+24°C65 %760 мм1.8 м/с5 %
    06:00Ясно и безоблачно+22°C71 %761 мм2.1 м/с5 %
    09:00Ясно и безоблачно+27°C62 %762 мм1.1 м/с5 %
    12:00Небольшая облачность+31°C44 %761 мм2.0 м/с5 %
    15:00Небольшая облачность+34°C36 %759 мм2.7 м/с5 %
    18:00Ясно и безоблачно+32°C49 %758 мм2.2 м/с5 %
    21:00Ясно и безоблачно+31°C57 %760 мм2.6 м/с5 %
  • 19июля
    Пятница
    +23°
    +34°
    Небольшая облачность и лёгкий дождик
    ВремяПогодаТемператураВлажностьДавлениеВетер, м/сВероятность осадков
    00:00Практически безоблачно+25°C72 %761 мм1.4 м/с5 %
    03:00Облачно с прояснениями+25°C75 %760 мм1.7 м/с5 %
    06:00Ясно и безоблачно+24°C75 %761 мм2.8 м/с5 %
    09:00Ясно и безоблачно+28°C78 %762 мм2.4 м/с5 %
    12:00Практически безоблачно+31°C56 %761 мм2.0 м/с3 %
    15:00Небольшая облачность и лёгкий дождик+34°C44 %759 мм2.3 м/с18 %
    18:00Ясно и безоблачно+32°C56 %759 мм1.5 м/с8 %
    21:00Практически безоблачно+32°C72 %760 мм2.6 м/с11 %
  • 20июля
    Суббота
    +23°
    +34°
    Практически безоблачно
    ВремяПогодаТемператураВлажностьДавлениеВетер, м/сВероятность осадков
    00:00Ясно и безоблачно+26°C79 %761 мм1.3 м/с26 %
    03:00Ясно и безоблачно+25°C83 %760 мм2.4 м/с29 %
    06:00Ясно и безоблачно+24°C88 %760 мм2.5 м/с17 %
    09:00Ясно и безоблачно+28°C81 %762 мм2.0 м/с11 %
    12:00Ясно и безоблачно+31°C60 %761 мм1.4 м/с25 %
    15:00Практически безоблачно+34°C52 %758 мм0.8 м/с32 %
    18:00Практически безоблачно+32°C60 %758 мм1.3 м/с31 %
    21:00Практически безоблачно+32°C69 %760 мм1.5 м/с49 %
  • 21июля
    Воскресенье
    +23°
    +34°
    Практически безоблачно
    ВремяПогодаТемператураВлажностьДавлениеВетер, м/сВероятность осадков
    00:00Небольшая облачность и лёгкий дождик+26°C80 %760 мм1.9 м/с58 %
    03:00Ясно и безоблачно+25°C85 %759 мм2.5 м/с43 %
    06:00Ясно и безоблачно+24°C89 %759 мм2.5 м/с18 %
    09:00Ясно и безоблачно+28°C80 %760 мм2.5 м/с13 %
    12:00Ясно и безоблачно+32°C59 %759 мм1.6 м/с14 %
    15:00Практически безоблачно+33°C49 %757 мм2.3 м/с22 %
    18:00Практически безоблачно+31°C62 %757 мм2.4 м/с25 %
    21:00Ясно и безоблачно+31°C76 %759 мм1.8 м/с26 %
Мы используем cookies
Соглашаюсь